sensor_id;sensor_type;location;lat;lon;timestamp;P1;durP1;ratioP1;P2;durP2;ratioP2
11524;SDS011;5819;49.648;8.330;2024-02-26T00:02:16;3.10;;;1.98;;
11524;SDS011;5819;49.648;8.330;2024-02-26T00:04:44;3.78;;;1.95;;
11524;SDS011;5819;49.648;8.330;2024-02-26T00:07:12;2.08;;;1.33;;
11524;SDS011;5819;49.648;8.330;2024-02-26T00:09:40;2.15;;;1.70;;
11524;SDS011;5819;49.648;8.330;2024-02-26T00:12:09;4.57;;;1.98;;
11524;SDS011;5819;49.648;8.330;2024-02-26T00:14:37;2.50;;;1.80;;
11524;SDS011;5819;49.648;8.330;2024-02-26T00:17:06;2.65;;;1.98;;
11524;SDS011;5819;49.648;8.330;2024-02-26T00:19:35;3.83;;;2.25;;
11524;SDS011;5819;49.648;8.330;2024-02-26T00:22:03;2.97;;;2.30;;
11524;SDS011;5819;49.648;8.330;2024-02-26T00:24:30;3.22;;;2.00;;
11524;SDS011;5819;49.648;8.330;2024-02-26T00:26:58;3.08;;;2.40;;
11524;SDS011;5819;49.648;8.330;2024-02-26T00:29:27;4.57;;;2.70;;
11524;SDS011;5819;49.648;8.330;2024-02-26T00:31:55;2.40;;;2.10;;
11524;SDS011;5819;49.648;8.330;2024-02-26T00:34:24;3.22;;;2.63;;
11524;SDS011;5819;49.648;8.330;2024-02-26T00:36:52;2.92;;;2.20;;
11524;SDS011;5819;49.648;8.330;2024-02-26T00:39:20;3.38;;;2.20;;
11524;SDS011;5819;49.648;8.330;2024-02-26T00:41:48;2.78;;;2.13;;
11524;SDS011;5819;49.648;8.330;2024-02-26T00:44:18;4.93;;;1.80;;
11524;SDS011;5819;49.648;8.330;2024-02-26T00:46:46;2.35;;;1.80;;
11524;SDS011;5819;49.648;8.330;2024-02-26T00:49:14;2.35;;;1.70;;
11524;SDS011;5819;49.648;8.330;2024-02-26T00:51:43;2.35;;;1.63;;
11524;SDS011;5819;49.648;8.330;2024-02-26T00:54:11;2.30;;;1.52;;
11524;SDS011;5819;49.648;8.330;2024-02-26T00:56:39;3.28;;;1.67;;
11524;SDS011;5819;49.648;8.330;2024-02-26T00:59:07;2.60;;;1.58;;
11524;SDS011;5819;49.648;8.330;2024-02-26T01:01:35;3.25;;;1.90;;
11524;SDS011;5819;49.648;8.330;2024-02-26T01:04:03;2.65;;;1.75;;
11524;SDS011;5819;49.648;8.330;2024-02-26T01:06:31;3.60;;;1.73;;
11524;SDS011;5819;49.648;8.330;2024-02-26T01:09:00;3.67;;;1.70;;
11524;SDS011;5819;49.648;8.330;2024-02-26T01:11:28;2.17;;;1.60;;
11524;SDS011;5819;49.648;8.330;2024-02-26T01:13:56;2.47;;;1.63;;
11524;SDS011;5819;49.648;8.330;2024-02-26T01:16:24;2.20;;;1.70;;
11524;SDS011;5819;49.648;8.330;2024-02-26T01:18:55;2.42;;;1.80;;
11524;SDS011;5819;49.648;8.330;2024-02-26T01:21:23;2.35;;;1.50;;
11524;SDS011;5819;49.648;8.330;2024-02-26T01:23:51;3.15;;;1.80;;
11524;SDS011;5819;49.648;8.330;2024-02-26T01:26:20;2.40;;;1.75;;
11524;SDS011;5819;49.648;8.330;2024-02-26T01:28:48;2.45;;;1.70;;
11524;SDS011;5819;49.648;8.330;2024-02-26T01:31:16;3.47;;;1.80;;
11524;SDS011;5819;49.648;8.330;2024-02-26T01:33:45;2.08;;;1.52;;
11524;SDS011;5819;49.648;8.330;2024-02-26T01:36:13;2.90;;;1.90;;
11524;SDS011;5819;49.648;8.330;2024-02-26T01:38:41;2.40;;;1.77;;
11524;SDS011;5819;49.648;8.330;2024-02-26T01:41:09;4.03;;;1.80;;
11524;SDS011;5819;49.648;8.330;2024-02-26T01:43:38;2.55;;;1.50;;
11524;SDS011;5819;49.648;8.330;2024-02-26T01:46:06;2.45;;;1.85;;
11524;SDS011;5819;49.648;8.330;2024-02-26T01:48:37;3.47;;;2.05;;
11524;SDS011;5819;49.648;8.330;2024-02-26T01:51:05;2.53;;;1.45;;
11524;SDS011;5819;49.648;8.330;2024-02-26T01:53:34;2.17;;;1.67;;
11524;SDS011;5819;49.648;8.330;2024-02-26T01:56:02;2.83;;;1.80;;
11524;SDS011;5819;49.648;8.330;2024-02-26T01:58:31;2.40;;;1.65;;
11524;SDS011;5819;49.648;8.330;2024-02-26T02:01:01;4.00;;;2.05;;
11524;SDS011;5819;49.648;8.330;2024-02-26T02:03:30;3.13;;;2.00;;
11524;SDS011;5819;49.648;8.330;2024-02-26T02:05:58;3.50;;;2.20;;
11524;SDS011;5819;49.648;8.330;2024-02-26T02:08:26;2.88;;;2.03;;
11524;SDS011;5819;49.648;8.330;2024-02-26T02:10:55;3.03;;;1.88;;
11524;SDS011;5819;49.648;8.330;2024-02-26T02:13:24;2.40;;;2.13;;
11524;SDS011;5819;49.648;8.330;2024-02-26T02:15:52;2.67;;;2.00;;
11524;SDS011;5819;49.648;8.330;2024-02-26T02:18:21;3.75;;;2.33;;
11524;SDS011;5819;49.648;8.330;2024-02-26T02:20:51;3.08;;;2.33;;
11524;SDS011;5819;49.648;8.330;2024-02-26T02:23:19;2.45;;;1.88;;
11524;SDS011;5819;49.648;8.330;2024-02-26T02:25:46;3.92;;;2.47;;
11524;SDS011;5819;49.648;8.330;2024-02-26T02:28:14;3.33;;;2.40;;
11524;SDS011;5819;49.648;8.330;2024-02-26T02:30:42;2.42;;;2.10;;
11524;SDS011;5819;49.648;8.330;2024-02-26T02:33:10;4.40;;;2.53;;
11524;SDS011;5819;49.648;8.330;2024-02-26T02:35:39;5.20;;;2.97;;
11524;SDS011;5819;49.648;8.330;2024-02-26T02:38:08;3.13;;;2.58;;
11524;SDS011;5819;49.648;8.330;2024-02-26T02:40:35;4.10;;;2.45;;
11524;SDS011;5819;49.648;8.330;2024-02-26T02:43:03;3.63;;;2.63;;
11524;SDS011;5819;49.648;8.330;2024-02-26T02:45:31;3.90;;;2.55;;
11524;SDS011;5819;49.648;8.330;2024-02-26T02:47:59;4.05;;;2.67;;
11524;SDS011;5819;49.648;8.330;2024-02-26T02:50:27;3.42;;;2.65;;
11524;SDS011;5819;49.648;8.330;2024-02-26T02:52:56;4.32;;;2.60;;
11524;SDS011;5819;49.648;8.330;2024-02-26T02:55:25;3.83;;;2.22;;
11524;SDS011;5819;49.648;8.330;2024-02-26T02:57:53;5.05;;;2.83;;
11524;SDS011;5819;49.648;8.330;2024-02-26T03:00:21;4.50;;;2.75;;
11524;SDS011;5819;49.648;8.330;2024-02-26T03:02:50;5.05;;;2.65;;
11524;SDS011;5819;49.648;8.330;2024-02-26T03:05:18;5.97;;;2.55;;
11524;SDS011;5819;49.648;8.330;2024-02-26T03:07:46;3.90;;;2.55;;
11524;SDS011;5819;49.648;8.330;2024-02-26T03:10:14;3.03;;;2.13;;
11524;SDS011;5819;49.648;8.330;2024-02-26T03:12:43;3.17;;;2.20;;
11524;SDS011;5819;49.648;8.330;2024-02-26T03:15:11;4.60;;;2.50;;
11524;SDS011;5819;49.648;8.330;2024-02-26T03:17:39;3.22;;;2.70;;
11524;SDS011;5819;49.648;8.330;2024-02-26T03:20:08;3.60;;;2.60;;
11524;SDS011;5819;49.648;8.330;2024-02-26T03:22:38;2.88;;;2.17;;
11524;SDS011;5819;49.648;8.330;2024-02-26T03:25:06;4.07;;;3.22;;
11524;SDS011;5819;49.648;8.330;2024-02-26T03:27:34;5.70;;;2.65;;
11524;SDS011;5819;49.648;8.330;2024-02-26T03:30:04;3.90;;;2.92;;
11524;SDS011;5819;49.648;8.330;2024-02-26T03:32:33;3.65;;;2.72;;
11524;SDS011;5819;49.648;8.330;2024-02-26T03:35:01;3.72;;;2.90;;
11524;SDS011;5819;49.648;8.330;2024-02-26T03:37:29;3.33;;;2.30;;
11524;SDS011;5819;49.648;8.330;2024-02-26T03:39:57;4.00;;;2.42;;
11524;SDS011;5819;49.648;8.330;2024-02-26T03:42:27;3.80;;;2.63;;
11524;SDS011;5819;49.648;8.330;2024-02-26T03:44:55;3.47;;;2.50;;
11524;SDS011;5819;49.648;8.330;2024-02-26T03:47:24;4.05;;;2.53;;
11524;SDS011;5819;49.648;8.330;2024-02-26T03:49:52;3.40;;;2.00;;
11524;SDS011;5819;49.648;8.330;2024-02-26T03:52:20;3.55;;;2.60;;
11524;SDS011;5819;49.648;8.330;2024-02-26T03:54:48;3.20;;;2.10;;
11524;SDS011;5819;49.648;8.330;2024-02-26T03:57:16;3.45;;;2.15;;
11524;SDS011;5819;49.648;8.330;2024-02-26T03:59:43;5.10;;;1.90;;
11524;SDS011;5819;49.648;8.330;2024-02-26T04:02:11;5.05;;;2.20;;
11524;SDS011;5819;49.648;8.330;2024-02-26T04:04:40;2.08;;;1.85;;
11524;SDS011;5819;49.648;8.330;2024-02-26T04:07:08;2.40;;;1.98;;
11524;SDS011;5819;49.648;8.330;2024-02-26T04:09:37;2.17;;;1.77;;
11524;SDS011;5819;49.648;8.330;2024-02-26T04:12:05;2.38;;;1.90;;
11524;SDS011;5819;49.648;8.330;2024-02-26T04:14:35;2.45;;;1.45;;
11524;SDS011;5819;49.648;8.330;2024-02-26T04:17:03;2.08;;;1.40;;
11524;SDS011;5819;49.648;8.330;2024-02-26T04:19:31;2.22;;;1.70;;
11524;SDS011;5819;49.648;8.330;2024-02-26T04:22:01;3.20;;;1.67;;
11524;SDS011;5819;49.648;8.330;2024-02-26T04:24:29;2.33;;;1.70;;
11524;SDS011;5819;49.648;8.330;2024-02-26T04:26:56;3.13;;;2.10;;
11524;SDS011;5819;49.648;8.330;2024-02-26T04:29:24;2.53;;;1.70;;
11524;SDS011;5819;49.648;8.330;2024-02-26T04:31:52;2.00;;;1.80;;
11524;SDS011;5819;49.648;8.330;2024-02-26T04:34:20;3.97;;;2.40;;
11524;SDS011;5819;49.648;8.330;2024-02-26T04:36:48;2.78;;;2.47;;
11524;SDS011;5819;49.648;8.330;2024-02-26T04:39:18;5.47;;;2.63;;
11524;SDS011;5819;49.648;8.330;2024-02-26T04:41:46;3.72;;;2.83;;
11524;SDS011;5819;49.648;8.330;2024-02-26T04:44:14;4.38;;;3.33;;
11524;SDS011;5819;49.648;8.330;2024-02-26T04:46:42;4.53;;;3.30;;
11524;SDS011;5819;49.648;8.330;2024-02-26T04:49:10;6.28;;;3.80;;
11524;SDS011;5819;49.648;8.330;2024-02-26T04:51:38;7.32;;;5.90;;
11524;SDS011;5819;49.648;8.330;2024-02-26T04:54:06;8.27;;;5.60;;
11524;SDS011;5819;49.648;8.330;2024-02-26T04:56:35;6.35;;;5.05;;
11524;SDS011;5819;49.648;8.330;2024-02-26T04:59:03;5.75;;;3.95;;
11524;SDS011;5819;49.648;8.330;2024-02-26T05:01:31;4.90;;;3.40;;
11524;SDS011;5819;49.648;8.330;2024-02-26T05:03:59;4.68;;;3.20;;
11524;SDS011;5819;49.648;8.330;2024-02-26T05:06:27;4.72;;;3.60;;
11524;SDS011;5819;49.648;8.330;2024-02-26T05:08:55;2.88;;;2.40;;
11524;SDS011;5819;49.648;8.330;2024-02-26T05:11:23;3.90;;;2.65;;
11524;SDS011;5819;49.648;8.330;2024-02-26T05:13:52;4.10;;;3.03;;
11524;SDS011;5819;49.648;8.330;2024-02-26T05:16:20;4.63;;;3.05;;
11524;SDS011;5819;49.648;8.330;2024-02-26T05:18:51;3.13;;;2.83;;
11524;SDS011;5819;49.648;8.330;2024-02-26T05:21:19;3.47;;;3.17;;
11524;SDS011;5819;49.648;8.330;2024-02-26T05:23:47;4.57;;;3.45;;
11524;SDS011;5819;49.648;8.330;2024-02-26T05:26:19;3.55;;;3.13;;
11524;SDS011;5819;49.648;8.330;2024-02-26T05:28:47;6.68;;;3.67;;
11524;SDS011;5819;49.648;8.330;2024-02-26T05:31:16;4.57;;;2.80;;
11524;SDS011;5819;49.648;8.330;2024-02-26T05:33:44;3.20;;;2.65;;
11524;SDS011;5819;49.648;8.330;2024-02-26T05:36:17;4.50;;;2.60;;
11524;SDS011;5819;49.648;8.330;2024-02-26T05:38:45;3.60;;;2.33;;
11524;SDS011;5819;49.648;8.330;2024-02-26T05:41:14;3.53;;;2.90;;
11524;SDS011;5819;49.648;8.330;2024-02-26T05:43:43;4.35;;;3.00;;
11524;SDS011;5819;49.648;8.330;2024-02-26T05:46:11;4.13;;;2.72;;
11524;SDS011;5819;49.648;8.330;2024-02-26T05:48:40;6.35;;;3.45;;
11524;SDS011;5819;49.648;8.330;2024-02-26T05:51:09;5.97;;;4.80;;
11524;SDS011;5819;49.648;8.330;2024-02-26T05:53:37;7.65;;;5.53;;
11524;SDS011;5819;49.648;8.330;2024-02-26T05:56:05;6.00;;;3.97;;
11524;SDS011;5819;49.648;8.330;2024-02-26T05:58:33;5.47;;;3.55;;
11524;SDS011;5819;49.648;8.330;2024-02-26T06:01:02;3.13;;;2.80;;
11524;SDS011;5819;49.648;8.330;2024-02-26T06:03:30;4.60;;;3.13;;
11524;SDS011;5819;49.648;8.330;2024-02-26T06:06:00;4.07;;;2.90;;
11524;SDS011;5819;49.648;8.330;2024-02-26T06:08:28;4.22;;;3.28;;
11524;SDS011;5819;49.648;8.330;2024-02-26T06:10:57;6.45;;;3.60;;
11524;SDS011;5819;49.648;8.330;2024-02-26T06:13:25;5.07;;;3.20;;
11524;SDS011;5819;49.648;8.330;2024-02-26T06:15:52;5.05;;;3.20;;
11524;SDS011;5819;49.648;8.330;2024-02-26T06:18:20;6.90;;;3.30;;
11524;SDS011;5819;49.648;8.330;2024-02-26T06:20:49;5.40;;;3.38;;
11524;SDS011;5819;49.648;8.330;2024-02-26T06:23:19;4.05;;;3.20;;
11524;SDS011;5819;49.648;8.330;2024-02-26T06:25:48;4.72;;;3.78;;
11524;SDS011;5819;49.648;8.330;2024-02-26T06:28:16;4.22;;;3.50;;
11524;SDS011;5819;49.648;8.330;2024-02-26T06:30:45;4.53;;;3.50;;
11524;SDS011;5819;49.648;8.330;2024-02-26T06:33:14;5.50;;;4.15;;
11524;SDS011;5819;49.648;8.330;2024-02-26T06:35:43;4.60;;;3.75;;
11524;SDS011;5819;49.648;8.330;2024-02-26T06:38:10;5.47;;;3.45;;
11524;SDS011;5819;49.648;8.330;2024-02-26T06:40:41;3.97;;;3.58;;
11524;SDS011;5819;49.648;8.330;2024-02-26T06:43:09;4.40;;;3.70;;
11524;SDS011;5819;49.648;8.330;2024-02-26T06:45:37;5.53;;;4.22;;
11524;SDS011;5819;49.648;8.330;2024-02-26T06:48:05;5.20;;;4.25;;
11524;SDS011;5819;49.648;8.330;2024-02-26T06:50:34;5.53;;;4.20;;
11524;SDS011;5819;49.648;8.330;2024-02-26T06:53:01;5.07;;;3.88;;
11524;SDS011;5819;49.648;8.330;2024-02-26T06:55:29;5.55;;;4.50;;
11524;SDS011;5819;49.648;8.330;2024-02-26T06:57:58;5.40;;;4.50;;
11524;SDS011;5819;49.648;8.330;2024-02-26T07:00:27;5.05;;;4.45;;
11524;SDS011;5819;49.648;8.330;2024-02-26T07:02:55;7.35;;;4.82;;
11524;SDS011;5819;49.648;8.330;2024-02-26T07:05:23;7.90;;;4.70;;
11524;SDS011;5819;49.648;8.330;2024-02-26T07:07:51;6.18;;;4.88;;
11524;SDS011;5819;49.648;8.330;2024-02-26T07:10:19;4.50;;;4.07;;
11524;SDS011;5819;49.648;8.330;2024-02-26T07:12:47;5.72;;;4.60;;
11524;SDS011;5819;49.648;8.330;2024-02-26T07:15:17;4.93;;;4.40;;
11524;SDS011;5819;49.648;8.330;2024-02-26T07:17:45;5.05;;;4.40;;
11524;SDS011;5819;49.648;8.330;2024-02-26T07:20:15;7.95;;;4.97;;
11524;SDS011;5819;49.648;8.330;2024-02-26T07:22:44;6.53;;;5.18;;
11524;SDS011;5819;49.648;8.330;2024-02-26T07:25:12;11.90;;;8.77;;
11524;SDS011;5819;49.648;8.330;2024-02-26T07:27:42;17.75;;;13.82;;
11524;SDS011;5819;49.648;8.330;2024-02-26T07:30:10;16.80;;;12.32;;
11524;SDS011;5819;49.648;8.330;2024-02-26T07:32:41;14.60;;;10.57;;
11524;SDS011;5819;49.648;8.330;2024-02-26T07:35:08;14.40;;;10.25;;
11524;SDS011;5819;49.648;8.330;2024-02-26T07:37:36;11.00;;;9.63;;
11524;SDS011;5819;49.648;8.330;2024-02-26T07:40:04;12.63;;;9.68;;
11524;SDS011;5819;49.648;8.330;2024-02-26T07:42:34;12.65;;;10.23;;
11524;SDS011;5819;49.648;8.330;2024-02-26T07:45:02;12.65;;;10.32;;
11524;SDS011;5819;49.648;8.330;2024-02-26T07:47:30;12.90;;;10.68;;
11524;SDS011;5819;49.648;8.330;2024-02-26T07:50:02;12.57;;;10.85;;
11524;SDS011;5819;49.648;8.330;2024-02-26T07:52:30;13.82;;;10.63;;
11524;SDS011;5819;49.648;8.330;2024-02-26T07:54:58;11.23;;;9.32;;
11524;SDS011;5819;49.648;8.330;2024-02-26T07:57:28;11.68;;;8.93;;
11524;SDS011;5819;49.648;8.330;2024-02-26T07:59:56;9.63;;;8.48;;
11524;SDS011;5819;49.648;8.330;2024-02-26T08:02:24;11.90;;;9.50;;
11524;SDS011;5819;49.648;8.330;2024-02-26T08:04:52;15.25;;;10.13;;
11524;SDS011;5819;49.648;8.330;2024-02-26T08:07:21;18.30;;;10.73;;
11524;SDS011;5819;49.648;8.330;2024-02-26T08:09:50;15.50;;;10.27;;
11524;SDS011;5819;49.648;8.330;2024-02-26T08:12:18;16.15;;;9.60;;
11524;SDS011;5819;49.648;8.330;2024-02-26T08:14:46;19.02;;;10.55;;
11524;SDS011;5819;49.648;8.330;2024-02-26T08:17:13;19.15;;;11.05;;
11524;SDS011;5819;49.648;8.330;2024-02-26T08:19:41;16.10;;;10.85;;
11524;SDS011;5819;49.648;8.330;2024-02-26T08:22:09;10.73;;;8.30;;
11524;SDS011;5819;49.648;8.330;2024-02-26T08:24:43;12.98;;;8.25;;
11524;SDS011;5819;49.648;8.330;2024-02-26T08:27:12;14.38;;;8.18;;
11524;SDS011;5819;49.648;8.330;2024-02-26T08:29:39;9.00;;;7.30;;
11524;SDS011;5819;49.648;8.330;2024-02-26T08:32:07;9.90;;;7.43;;
11524;SDS011;5819;49.648;8.330;2024-02-26T08:34:35;13.77;;;8.88;;
11524;SDS011;5819;49.648;8.330;2024-02-26T08:37:03;7.72;;;6.60;;
11524;SDS011;5819;49.648;8.330;2024-02-26T08:39:31;7.10;;;6.03;;
11524;SDS011;5819;49.648;8.330;2024-02-26T08:42:01;7.13;;;6.28;;
11524;SDS011;5819;49.648;8.330;2024-02-26T08:44:29;6.15;;;5.55;;
11524;SDS011;5819;49.648;8.330;2024-02-26T08:46:57;7.15;;;5.65;;
11524;SDS011;5819;49.648;8.330;2024-02-26T08:49:25;6.45;;;5.70;;
11524;SDS011;5819;49.648;8.330;2024-02-26T08:51:53;6.68;;;5.25;;
11524;SDS011;5819;49.648;8.330;2024-02-26T08:54:21;7.10;;;5.22;;
11524;SDS011;5819;49.648;8.330;2024-02-26T08:56:51;6.18;;;5.25;;
11524;SDS011;5819;49.648;8.330;2024-02-26T08:59:20;6.40;;;4.93;;
11524;SDS011;5819;49.648;8.330;2024-02-26T09:01:49;5.38;;;4.88;;
11524;SDS011;5819;49.648;8.330;2024-02-26T09:04:17;7.22;;;5.32;;
11524;SDS011;5819;49.648;8.330;2024-02-26T09:06:45;6.07;;;5.40;;
11524;SDS011;5819;49.648;8.330;2024-02-26T09:09:13;6.60;;;4.93;;
11524;SDS011;5819;49.648;8.330;2024-02-26T09:11:40;5.18;;;4.68;;
11524;SDS011;5819;49.648;8.330;2024-02-26T09:14:08;8.40;;;4.90;;
11524;SDS011;5819;49.648;8.330;2024-02-26T09:16:38;5.88;;;5.07;;
11524;SDS011;5819;49.648;8.330;2024-02-26T09:19:06;5.75;;;5.15;;
11524;SDS011;5819;49.648;8.330;2024-02-26T09:21:34;6.97;;;5.80;;
11524;SDS011;5819;49.648;8.330;2024-02-26T09:24:01;7.47;;;5.05;;
11524;SDS011;5819;49.648;8.330;2024-02-26T09:26:30;6.78;;;5.75;;
11524;SDS011;5819;49.648;8.330;2024-02-26T09:28:57;5.75;;;5.18;;
11524;SDS011;5819;49.648;8.330;2024-02-26T09:31:25;7.15;;;5.10;;
11524;SDS011;5819;49.648;8.330;2024-02-26T09:33:54;6.03;;;5.38;;
11524;SDS011;5819;49.648;8.330;2024-02-26T09:36:27;7.40;;;5.47;;
11524;SDS011;5819;49.648;8.330;2024-02-26T09:38:55;5.80;;;4.82;;
11524;SDS011;5819;49.648;8.330;2024-02-26T09:41:27;8.38;;;5.68;;
11524;SDS011;5819;49.648;8.330;2024-02-26T09:43:56;6.45;;;5.53;;
11524;SDS011;5819;49.648;8.330;2024-02-26T09:46:26;6.82;;;5.32;;
11524;SDS011;5819;49.648;8.330;2024-02-26T09:48:55;6.00;;;5.25;;
11524;SDS011;5819;49.648;8.330;2024-02-26T09:51:24;7.50;;;5.35;;
11524;SDS011;5819;49.648;8.330;2024-02-26T09:53:53;6.65;;;5.63;;
11524;SDS011;5819;49.648;8.330;2024-02-26T09:56:21;6.25;;;5.45;;
11524;SDS011;5819;49.648;8.330;2024-02-26T09:58:48;5.70;;;4.80;;
11524;SDS011;5819;49.648;8.330;2024-02-26T10:01:20;7.07;;;4.75;;
11524;SDS011;5819;49.648;8.330;2024-02-26T10:03:52;4.82;;;4.38;;
11524;SDS011;5819;49.648;8.330;2024-02-26T10:06:25;4.25;;;3.85;;
11524;SDS011;5819;49.648;8.330;2024-02-26T10:08:54;6.10;;;4.22;;
11524;SDS011;5819;49.648;8.330;2024-02-26T10:11:25;6.53;;;4.50;;
11524;SDS011;5819;49.648;8.330;2024-02-26T10:13:54;8.00;;;5.10;;
11524;SDS011;5819;49.648;8.330;2024-02-26T10:16:22;5.13;;;4.57;;
11524;SDS011;5819;49.648;8.330;2024-02-26T10:18:50;7.53;;;4.97;;
11524;SDS011;5819;49.648;8.330;2024-02-26T10:21:27;5.63;;;4.55;;
11524;SDS011;5819;49.648;8.330;2024-02-26T10:23:55;6.40;;;4.47;;
11524;SDS011;5819;49.648;8.330;2024-02-26T10:26:23;5.57;;;4.55;;
11524;SDS011;5819;49.648;8.330;2024-02-26T10:28:51;5.30;;;3.85;;
11524;SDS011;5819;49.648;8.330;2024-02-26T10:31:21;5.93;;;4.55;;
11524;SDS011;5819;49.648;8.330;2024-02-26T10:33:49;5.63;;;4.00;;
11524;SDS011;5819;49.648;8.330;2024-02-26T10:36:18;5.70;;;3.85;;
11524;SDS011;5819;49.648;8.330;2024-02-26T10:38:49;5.72;;;4.13;;
11524;SDS011;5819;49.648;8.330;2024-02-26T10:41:21;5.70;;;4.72;;
11524;SDS011;5819;49.648;8.330;2024-02-26T10:43:50;5.93;;;5.43;;
11524;SDS011;5819;49.648;8.330;2024-02-26T10:46:19;5.55;;;4.85;;
11524;SDS011;5819;49.648;8.330;2024-02-26T10:48:50;5.30;;;4.80;;
11524;SDS011;5819;49.648;8.330;2024-02-26T10:51:20;6.97;;;5.72;;
11524;SDS011;5819;49.648;8.330;2024-02-26T10:53:56;6.25;;;4.93;;
11524;SDS011;5819;49.648;8.330;2024-02-26T10:56:28;6.10;;;5.50;;
11524;SDS011;5819;49.648;8.330;2024-02-26T10:58:56;6.22;;;5.25;;
11524;SDS011;5819;49.648;8.330;2024-02-26T11:01:25;6.40;;;5.75;;
11524;SDS011;5819;49.648;8.330;2024-02-26T11:03:55;5.65;;;4.78;;
11524;SDS011;5819;49.648;8.330;2024-02-26T11:06:25;5.40;;;4.85;;
11524;SDS011;5819;49.648;8.330;2024-02-26T11:08:56;5.85;;;4.78;;
11524;SDS011;5819;49.648;8.330;2024-02-26T11:11:26;5.35;;;4.65;;
11524;SDS011;5819;49.648;8.330;2024-02-26T11:13:54;6.75;;;5.22;;
11524;SDS011;5819;49.648;8.330;2024-02-26T11:16:24;5.85;;;5.05;;
11524;SDS011;5819;49.648;8.330;2024-02-26T11:18:53;6.85;;;5.05;;
11524;SDS011;5819;49.648;8.330;2024-02-26T11:21:23;5.50;;;4.32;;
11524;SDS011;5819;49.648;8.330;2024-02-26T11:23:57;7.38;;;4.93;;
11524;SDS011;5819;49.648;8.330;2024-02-26T11:26:26;6.18;;;5.00;;
11524;SDS011;5819;49.648;8.330;2024-02-26T11:28:55;5.07;;;4.45;;
11524;SDS011;5819;49.648;8.330;2024-02-26T11:31:24;5.85;;;4.90;;
11524;SDS011;5819;49.648;8.330;2024-02-26T11:33:54;6.60;;;4.95;;
11524;SDS011;5819;49.648;8.330;2024-02-26T11:36:24;10.80;;;5.30;;
11524;SDS011;5819;49.648;8.330;2024-02-26T11:38:52;6.78;;;5.03;;
11524;SDS011;5819;49.648;8.330;2024-02-26T11:41:21;6.88;;;5.28;;
11524;SDS011;5819;49.648;8.330;2024-02-26T11:43:50;7.65;;;6.18;;
11524;SDS011;5819;49.648;8.330;2024-02-26T11:46:28;7.03;;;5.20;;
11524;SDS011;5819;49.648;8.330;2024-02-26T11:49:01;6.97;;;5.88;;
11524;SDS011;5819;49.648;8.330;2024-02-26T11:51:32;6.93;;;5.75;;
11524;SDS011;5819;49.648;8.330;2024-02-26T11:54:01;6.07;;;5.47;;
11524;SDS011;5819;49.648;8.330;2024-02-26T11:56:32;9.48;;;5.70;;
11524;SDS011;5819;49.648;8.330;2024-02-26T11:59:03;6.40;;;5.15;;
11524;SDS011;5819;49.648;8.330;2024-02-26T12:01:39;5.78;;;5.10;;
11524;SDS011;5819;49.648;8.330;2024-02-26T12:04:11;7.15;;;5.32;;
11524;SDS011;5819;49.648;8.330;2024-02-26T12:06:41;7.72;;;5.70;;
11524;SDS011;5819;49.648;8.330;2024-02-26T12:09:11;9.00;;;5.40;;
11524;SDS011;5819;49.648;8.330;2024-02-26T12:11:41;7.85;;;5.47;;
11524;SDS011;5819;49.648;8.330;2024-02-26T12:14:10;7.13;;;4.95;;
11524;SDS011;5819;49.648;8.330;2024-02-26T12:16:38;8.25;;;5.70;;
11524;SDS011;5819;49.648;8.330;2024-02-26T12:19:09;5.90;;;5.03;;
11524;SDS011;5819;49.648;8.330;2024-02-26T12:21:37;6.30;;;5.25;;
11524;SDS011;5819;49.648;8.330;2024-02-26T12:24:11;5.95;;;5.20;;
11524;SDS011;5819;49.648;8.330;2024-02-26T12:26:41;7.70;;;5.25;;
11524;SDS011;5819;49.648;8.330;2024-02-26T12:29:09;7.15;;;4.85;;
11524;SDS011;5819;49.648;8.330;2024-02-26T12:31:38;5.43;;;4.30;;
11524;SDS011;5819;49.648;8.330;2024-02-26T12:34:07;4.00;;;3.60;;
11524;SDS011;5819;49.648;8.330;2024-02-26T12:36:37;4.65;;;4.00;;
11524;SDS011;5819;49.648;8.330;2024-02-26T12:39:06;4.85;;;3.70;;
11524;SDS011;5819;49.648;8.330;2024-02-26T12:41:37;4.70;;;4.03;;
11524;SDS011;5819;49.648;8.330;2024-02-26T12:44:07;6.13;;;4.18;;
11524;SDS011;5819;49.648;8.330;2024-02-26T12:46:35;7.25;;;4.70;;
11524;SDS011;5819;49.648;8.330;2024-02-26T12:49:03;5.95;;;4.53;;
11524;SDS011;5819;49.648;8.330;2024-02-26T12:51:32;4.90;;;4.07;;
11524;SDS011;5819;49.648;8.330;2024-02-26T12:54:02;4.43;;;4.03;;
11524;SDS011;5819;49.648;8.330;2024-02-26T12:56:45;4.93;;;3.65;;
11524;SDS011;5819;49.648;8.330;2024-02-26T12:59:15;4.70;;;4.00;;
11524;SDS011;5819;49.648;8.330;2024-02-26T13:01:42;4.90;;;3.65;;
11524;SDS011;5819;49.648;8.330;2024-02-26T13:04:10;6.68;;;4.28;;
11524;SDS011;5819;49.648;8.330;2024-02-26T13:06:39;4.55;;;3.67;;
11524;SDS011;5819;49.648;8.330;2024-02-26T13:09:07;5.07;;;4.32;;
11524;SDS011;5819;49.648;8.330;2024-02-26T13:11:36;6.88;;;4.32;;
11524;SDS011;5819;49.648;8.330;2024-02-26T13:14:07;4.72;;;4.20;;
11524;SDS011;5819;49.648;8.330;2024-02-26T13:16:37;5.25;;;4.75;;
11524;SDS011;5819;49.648;8.330;2024-02-26T13:19:09;6.25;;;4.88;;
11524;SDS011;5819;49.648;8.330;2024-02-26T13:21:37;8.65;;;5.00;;
11524;SDS011;5819;49.648;8.330;2024-02-26T13:24:05;9.48;;;5.28;;
11524;SDS011;5819;49.648;8.330;2024-02-26T13:26:34;6.10;;;4.20;;
11524;SDS011;5819;49.648;8.330;2024-02-26T13:29:02;6.78;;;4.82;;
11524;SDS011;5819;49.648;8.330;2024-02-26T13:31:39;5.28;;;4.40;;
11524;SDS011;5819;49.648;8.330;2024-02-26T13:34:10;5.05;;;4.30;;
11524;SDS011;5819;49.648;8.330;2024-02-26T13:36:38;5.22;;;4.32;;
11524;SDS011;5819;49.648;8.330;2024-02-26T13:39:06;6.88;;;5.07;;
11524;SDS011;5819;49.648;8.330;2024-02-26T13:41:39;6.75;;;4.72;;
11524;SDS011;5819;49.648;8.330;2024-02-26T13:44:10;6.45;;;4.80;;
11524;SDS011;5819;49.648;8.330;2024-02-26T13:46:37;5.70;;;4.45;;
11524;SDS011;5819;49.648;8.330;2024-02-26T13:49:08;8.90;;;4.40;;
11524;SDS011;5819;49.648;8.330;2024-02-26T13:51:37;6.90;;;4.50;;
11524;SDS011;5819;49.648;8.330;2024-02-26T13:54:05;6.03;;;4.70;;
11524;SDS011;5819;49.648;8.330;2024-02-26T13:56:34;6.60;;;4.60;;
11524;SDS011;5819;49.648;8.330;2024-02-26T13:59:02;6.13;;;4.70;;
11524;SDS011;5819;49.648;8.330;2024-02-26T14:01:30;5.60;;;4.47;;
11524;SDS011;5819;49.648;8.330;2024-02-26T14:04:01;5.88;;;4.40;;
11524;SDS011;5819;49.648;8.330;2024-02-26T14:06:31;6.90;;;3.83;;
11524;SDS011;5819;49.648;8.330;2024-02-26T14:08:59;5.63;;;3.78;;
11524;SDS011;5819;49.648;8.330;2024-02-26T14:11:27;7.05;;;4.30;;
11524;SDS011;5819;49.648;8.330;2024-02-26T14:13:56;4.55;;;3.50;;
11524;SDS011;5819;49.648;8.330;2024-02-26T14:16:23;5.22;;;3.95;;
11524;SDS011;5819;49.648;8.330;2024-02-26T14:18:52;5.15;;;3.65;;
11524;SDS011;5819;49.648;8.330;2024-02-26T14:21:21;5.60;;;3.95;;
11524;SDS011;5819;49.648;8.330;2024-02-26T14:23:49;6.47;;;4.38;;
11524;SDS011;5819;49.648;8.330;2024-02-26T14:26:17;8.18;;;4.68;;
11524;SDS011;5819;49.648;8.330;2024-02-26T14:28:45;6.03;;;4.40;;
11524;SDS011;5819;49.648;8.330;2024-02-26T14:31:12;5.35;;;4.55;;
11524;SDS011;5819;49.648;8.330;2024-02-26T14:33:40;7.05;;;5.20;;
11524;SDS011;5819;49.648;8.330;2024-02-26T14:36:08;4.88;;;3.90;;
11524;SDS011;5819;49.648;8.330;2024-02-26T14:38:38;7.32;;;5.00;;
11524;SDS011;5819;49.648;8.330;2024-02-26T14:41:06;7.75;;;5.07;;
11524;SDS011;5819;49.648;8.330;2024-02-26T14:43:35;4.88;;;4.05;;
11524;SDS011;5819;49.648;8.330;2024-02-26T14:46:03;5.10;;;4.43;;
11524;SDS011;5819;49.648;8.330;2024-02-26T14:48:31;5.95;;;4.05;;
11524;SDS011;5819;49.648;8.330;2024-02-26T14:50:59;5.63;;;4.55;;
11524;SDS011;5819;49.648;8.330;2024-02-26T14:53:28;5.78;;;4.20;;
11524;SDS011;5819;49.648;8.330;2024-02-26T14:55:57;6.85;;;4.40;;
11524;SDS011;5819;49.648;8.330;2024-02-26T14:58:26;6.03;;;4.70;;
11524;SDS011;5819;49.648;8.330;2024-02-26T15:00:54;8.80;;;4.22;;
11524;SDS011;5819;49.648;8.330;2024-02-26T15:03:22;6.85;;;4.57;;
11524;SDS011;5819;49.648;8.330;2024-02-26T15:05:50;6.28;;;3.58;;
11524;SDS011;5819;49.648;8.330;2024-02-26T15:08:18;6.05;;;4.05;;
11524;SDS011;5819;49.648;8.330;2024-02-26T15:10:46;6.20;;;4.32;;